Time;durP1;ratioP1;P1;durP2;ratioP2;P2;SDS_P1;SDS_P2;PMS_P1;PMS_P2;Temp;Humidity;BMP_temperature;BMP_pressure;BME280_temperature;BME280_humidity;BME280_pressure;Samples;Min_cycle;Max_cycle;Signal;HPM_P1;HPM_P2
2023/09/17 07:16:24;;;;;;;;;;;;;;;21.95;70.71;96872.38;4197613;28;10436;-65
2023/09/17 07:18:30;;;;;;;;;;;;;;;22.26;70.34;96864.44;4189857;28;5661;-67
2023/09/17 07:20:32;;;;;;;;;;;;;;;22.49;69.36;96871.22;4189634;28;5717;-66
2023/09/17 07:22:35;;;;;;;;;;;;;;;22.65;69.22;96862.06;4180178;28;5730;-67
2023/09/17 07:24:38;;;;;;;;;;;;;;;22.80;68.94;96869.38;4191873;28;5809;-67
2023/09/17 07:26:42;;;;;;;;;;;;;;;22.94;68.28;96865.09;4189641;28;5738;-67
2023/09/17 07:28:45;;;;;;;;;;;;;;;23.04;67.84;96865.09;4189583;28;5750;-67
2023/09/17 07:30:53;;;;;;;;;;;;;;;23.13;67.92;96874.25;4189640;28;5742;-67
2023/09/17 07:32:58;;;;;;;;;;;;;;;23.19;67.35;96862.38;4186271;28;5709;-67
2023/09/17 07:35:02;;;;;;;;;;;;;;;23.27;67.28;96865.59;4189287;28;5727;-67
2023/09/17 07:37:05;;;;;;;;;;;;;;;23.32;66.86;96874.47;4197561;28;5819;-67
2023/09/17 07:39:09;;;;;;;;;;;;;;;23.36;66.49;96874.75;4193089;28;5835;-66
2023/09/17 07:41:12;;;;;;;;;;;;;;;23.43;66.78;96872.56;4192245;28;5725;-67
2023/09/17 07:43:15;;;;;;;;;;;;;;;23.45;66.17;96886.63;4181521;28;5750;-66
2023/09/17 07:45:19;;;;;;;;;;;;;;;23.49;66.36;96877.69;4186299;28;5777;-66
2023/09/17 07:47:22;;;;;;;;;;;;;;;23.55;65.65;96873.09;4180811;28;6241;-66
2023/09/17 07:49:28;;;;;;;;;;;;;;;23.58;65.84;96877.16;4180806;28;6428;-67
2023/09/17 07:51:31;;;;;;;;;;;;;;;23.61;65.92;96869.34;4182028;28;5801;-67
2023/09/17 07:53:33;;;;;;;;;;;;;;;23.63;65.74;96867.16;4186991;28;5742;-66
2023/09/17 07:55:36;;;;;;;;;;;;;;;23.68;65.05;96880.66;4185747;28;5725;-67
2023/09/17 07:57:39;;;;;;;;;;;;;;;23.70;64.98;96875.78;4184300;28;5862;-66
2023/09/17 07:59:42;;;;;;;;;;;;;;;23.73;64.54;96877.94;4191109;28;5722;-67
2023/09/17 08:01:47;;;;;;;;;;;;;;;23.71;65.06;96874.69;4194772;28;6462;-67
2023/09/17 08:03:50;;;;;;;;;;;;;;;23.73;65.10;96867.13;4188337;28;5722;-67
2023/09/17 08:05:56;;;;;;;;;;;;;;;23.75;64.42;96869.56;4184765;28;5710;-66
2023/09/17 08:08:00;;;;;;;;;;;;;;;23.78;64.73;96869.84;4194842;28;5780;-67
2023/09/17 08:10:04;;;;;;;;;;;;;;;23.82;64.70;96880.88;4187128;28;5728;-66
2023/09/17 08:12:10;;;;;;;;;;;;;;;23.83;64.65;96882.50;4191434;28;6068;-65
2023/09/17 08:14:14;;;;;;;;;;;;;;;23.86;63.99;96873.03;4188945;28;6546;-64
2023/09/17 08:16:19;;;;;;;;;;;;;;;23.86;64.28;96870.31;4189771;28;5793;-64
2023/09/17 08:18:22;;;;;;;;;;;;;;;23.88;64.30;96868.16;4185370;28;5724;-65
2023/09/17 08:20:25;;;;;;;;;;;;;;;23.91;64.01;96875.72;4185181;28;5696;-65
2023/09/17 08:22:30;;;;;;;;;;;;;;;23.94;63.89;96872.47;4183392;28;5776;-65
2023/09/17 08:24:32;;;;;;;;;;;;;;;23.96;63.64;96875.69;4185480;28;5713;-65
2023/09/17 08:26:36;;;;;;;;;;;;;;;23.98;63.91;96868.91;4185272;28;5836;-63
2023/09/17 08:28:41;;;;;;;;;;;;;;;24.00;63.74;96866.75;4184648;28;5875;-64
2023/09/17 08:30:44;;;;;;;;;;;;;;;24.02;63.30;96866.50;4182863;28;5952;-65
2023/09/17 08:32:47;;;;;;;;;;;;;;;24.04;63.79;96869.72;4184850;28;6584;-65
2023/09/17 08:34:50;;;;;;;;;;;;;;;24.04;63.64;96869.72;4184899;28;5713;-65
2023/09/17 08:36:53;;;;;;;;;;;;;;;24.05;63.18;96865.94;4168753;28;5856;-65
2023/09/17 08:38:57;;;;;;;;;;;;;;;24.06;63.18;96868.34;4182419;28;5830;-64
2023/09/17 08:41:03;;;;;;;;;;;;;;;24.08;62.94;96868.06;4185300;28;5709;-64
2023/09/17 08:43:06;;;;;;;;;;;;;;;24.09;62.89;96869.69;4180042;28;5729;-64
2023/09/17 08:45:09;;;;;;;;;;;;;;;24.10;62.91;96868.59;4179628;28;5991;-64
2023/09/17 08:47:13;;;;;;;;;;;;;;;24.09;62.75;96864.28;4180657;28;5906;-66
2023/09/17 08:49:17;;;;;;;;;;;;;;;24.10;63.00;96860.50;4185042;28;5777;-65
2023/09/17 08:51:24;;;;;;;;;;;;;;;24.11;63.11;96862.91;4179201;28;5810;-65
2023/09/17 08:53:31;;;;;;;;;;;;;;;24.14;62.60;96874.28;4172589;28;5911;-65
2023/09/17 08:55:36;;;;;;;;;;;;;;;24.15;62.87;96868.59;4176057;28;5817;-65
2023/09/17 08:57:41;;;;;;;;;;;;;;;24.17;62.49;96862.91;4182607;28;5956;-65
2023/09/17 08:59:47;;;;;;;;;;;;;;;24.18;62.32;96859.91;4177875;28;5704;-65
2023/09/17 09:01:53;;;;;;;;;;;;;;;24.18;62.27;96862.63;4177351;28;5713;-64
2023/09/17 09:03:57;;;;;;;;;;;;;;;24.24;62.57;96864.22;4179385;28;5811;-65
2023/09/17 09:06:01;;;;;;;;;;;;;;;24.28;62.22;96857.16;4176254;28;6665;-65
2023/09/17 09:08:04;;;;;;;;;;;;;;;24.32;62.13;96860.13;4171590;28;5884;-64
2023/09/17 09:10:08;;;;;;;;;;;;;;;24.35;62.17;96862.28;4174859;28;5829;-64
2023/09/17 09:12:13;;;;;;;;;;;;;;;24.38;61.81;96859.84;4178978;28;5756;-65
2023/09/17 09:14:16;;;;;;;;;;;;;;;24.41;61.37;96858.47;4179988;28;5716;-64
2023/09/17 09:16:19;;;;;;;;;;;;;;;24.42;61.56;96856.56;4182251;28;7718;-66
2023/09/17 09:18:23;;;;;;;;;;;;;;;24.42;61.15;96856.56;4182659;28;6378;-66
2023/09/17 09:20:26;;;;;;;;;;;;;;;24.41;61.32;96852.25;4171198;28;5818;-65
2023/09/17 09:22:29;;;;;;;;;;;;;;;24.45;61.20;96853.31;4175660;28;5772;-64
2023/09/17 09:24:41;;;;;;;;;;;;;;;24.46;61.25;96853.00;4178810;28;5870;-64
2023/09/17 09:26:45;;;;;;;;;;;;;;;24.49;60.86;96851.66;4183413;28;5780;-65
2023/09/17 09:28:50;;;;;;;;;;;;;;;24.48;60.29;96842.75;4182725;28;5720;-65
2023/09/17 09:30:53;;;;;;;;;;;;;;;24.51;60.53;96854.91;4179171;28;5746;-63
2023/09/17 09:32:57;;;;;;;;;;;;;;;24.49;60.55;96852.47;4179969;28;6596;-63
2023/09/17 09:35:01;;;;;;;;;;;;;;;24.51;60.34;96852.19;4177033;28;5720;-63
2023/09/17 09:37:05;;;;;;;;;;;;;;;24.52;60.19;96840.28;4179926;28;7082;-64
2023/09/17 09:39:08;;;;;;;;;;;;;;;24.52;60.62;96840.28;4167621;28;5817;-64
2023/09/17 09:41:11;;;;;;;;;;;;;;;24.53;60.46;96842.72;4172346;28;5815;-65
2023/09/17 09:43:30;;;;;;;;;;;;;;;24.53;60.19;96842.72;4182562;28;5717;-65
2023/09/17 09:45:36;;;;;;;;;;;;;;;24.54;60.36;96832.72;4177227;28;5811;-64
2023/09/17 09:47:39;;;;;;;;;;;;;;;24.54;59.88;96830.00;4180625;28;6402;-64
2023/09/17 09:49:42;;;;;;;;;;;;;;;24.50;59.65;96828.97;4176905;28;5705;-65
2023/09/17 09:51:45;;;;;;;;;;;;;;;24.49;60.08;96824.66;4177925;28;5834;-65
2023/09/17 09:53:49;;;;;;;;;;;;;;;24.49;60.00;96824.66;4171697;28;5104;-65
2023/09/17 09:55:52;;;;;;;;;;;;;;;24.51;60.17;96833.28;4175626;28;5744;-65
2023/09/17 09:57:56;;;;;;;;;;;;;;;24.51;59.81;96827.88;4175357;28;5574;-65
2023/09/17 10:00:06;;;;;;;;;;;;;;;24.52;60.03;96829.47;4175378;28;5746;-65
2023/09/17 10:02:13;;;;;;;;;;;;;;;24.51;59.89;96823.28;4181783;28;6667;-65
2023/09/17 10:04:19;;;;;;;;;;;;;;;24.52;59.72;96816.78;4178489;28;5702;-65
2023/09/17 10:06:21;;;;;;;;;;;;;;;24.54;59.71;96821.91;4175207;28;5833;-65
2023/09/17 10:08:24;;;;;;;;;;;;;;;24.54;59.15;96825.41;4178322;28;5812;-66
2023/09/17 10:10:27;;;;;;;;;;;;;;;24.53;59.27;96815.69;4175469;28;5743;-66
2023/09/17 10:12:30;;;;;;;;;;;;;;;24.56;59.68;96811.59;4180403;28;5708;-65
2023/09/17 10:14:37;;;;;;;;;;;;;;;24.58;59.29;96817.56;4174995;28;5829;-65
2023/09/17 10:16:41;;;;;;;;;;;;;;;24.60;59.11;96812.69;4176817;28;5965;-65
2023/09/17 10:18:46;;;;;;;;;;;;;;;24.61;58.97;96812.38;4180220;28;5937;-65
2023/09/17 10:20:51;;;;;;;;;;;;;;;24.64;58.94;96813.72;4174856;28;5718;-67
2023/09/17 10:22:55;;;;;;;;;;;;;;;24.66;59.20;96814.22;4172573;28;5817;-65
2023/09/17 10:24:58;;;;;;;;;;;;;;;24.69;59.10;96816.41;4175126;28;5824;-65
2023/09/17 10:27:01;;;;;;;;;;;;;;;24.70;59.09;96809.09;4177585;28;5817;-65
2023/09/17 10:29:05;;;;;;;;;;;;;;;24.70;59.05;96806.38;4180771;28;5815;-65
2023/09/17 10:31:09;;;;;;;;;;;;;;;24.71;58.81;96808.81;4183132;28;6117;-65
2023/09/17 10:33:14;;;;;;;;;;;;;;;24.70;58.82;96809.09;4174892;28;5789;-66
2023/09/17 10:35:19;;;;;;;;;;;;;;;24.71;59.11;96808.00;4179032;28;5742;-65
2023/09/17 10:37:22;;;;;;;;;;;;;;;24.70;58.95;96801.78;4176424;28;6532;-66
2023/09/17 10:39:28;;;;;;;;;;;;;;;24.70;58.92;96793.69;4182166;28;5709;-66
2023/09/17 10:41:33;;;;;;;;;;;;;;;24.70;58.64;96785.56;4174959;28;5815;-66
2023/09/17 10:43:37;;;;;;;;;;;;;;;24.71;58.58;96791.78;4176919;28;5733;-65
2023/09/17 10:45:42;;;;;;;;;;;;;;;24.71;58.57;96791.78;4173229;28;5841;-65
2023/09/17 10:47:46;;;;;;;;;;;;;;;24.71;58.54;96781.78;4169923;28;5784;-65
2023/09/17 10:49:49;;;;;;;;;;;;;;;24.73;58.48;96785.00;4183089;28;5725;-65
2023/09/17 10:51:55;;;;;;;;;;;;;;;24.73;58.41;96776.88;4170244;28;5865;-65
2023/09/17 10:53:58;;;;;;;;;;;;;;;24.73;58.45;96771.47;4166671;28;5742;-66
2023/09/17 10:56:07;;;;;;;;;;;;;;;24.74;58.78;96773.09;4174813;28;5833;-65
2023/09/17 10:58:15;;;;;;;;;;;;;;;24.74;58.29;96770.38;4166583;28;5927;-65
2023/09/17 11:00:22;;;;;;;;;;;;;;;24.74;58.49;96775.78;4166846;28;5837;-65
2023/09/17 11:02:26;;;;;;;;;;;;;;;24.76;58.36;96781.72;4166648;28;5938;-64
2023/09/17 11:04:31;;;;;;;;;;;;;;;24.75;58.38;96774.69;4166288;28;5840;-65
2023/09/17 11:06:36;;;;;;;;;;;;;;;24.77;58.13;96777.09;4174696;28;5991;-65
2023/09/17 11:08:42;;;;;;;;;;;;;;;24.77;58.16;96772.50;4171476;28;5910;-65
2023/09/17 11:10:45;;;;;;;;;;;;;;;24.78;57.88;96776.03;4166594;28;5734;-65
2023/09/17 11:12:48;;;;;;;;;;;;;;;24.77;57.70;96767.09;4177166;28;5804;-65
2023/09/17 11:14:52;;;;;;;;;;;;;;;24.78;57.74;96765.22;4182478;28;5693;-66
2023/09/17 11:16:55;;;;;;;;;;;;;;;24.77;57.88;96767.09;4182786;28;5728;-65
2023/09/17 11:19:05;;;;;;;;;;;;;;;24.80;57.44;96766.53;4174408;28;5841;-66
2023/09/17 11:21:12;;;;;;;;;;;;;;;24.80;57.79;96755.72;4167748;28;5108;-66
2023/09/17 11:23:16;;;;;;;;;;;;;;;24.82;57.86;96764.38;4182188;28;5792;-66
2023/09/17 11:25:34;;;;;;;;;;;;;;;24.83;57.19;96762.47;4182597;28;5815;-66
2023/09/17 11:27:49;;;;;;;;;;;;;;;24.84;56.66;96754.06;4174391;28;5753;-66
2023/09/17 11:29:52;;;;;;;;;;;;;;;24.85;56.88;96757.56;4170531;28;5697;-65
2023/09/17 11:32:01;;;;;;;;;;;;;;;24.86;56.70;96754.59;4177787;28;6038;-65
2023/09/17 11:34:09;;;;;;;;;;;;;;;24.85;56.28;96747.56;4180364;28;5819;-64
2023/09/17 11:36:13;;;;;;;;;;;;;;;24.87;56.68;96742.69;4174453;28;5716;-64
2023/09/17 11:38:16;;;;;;;;;;;;;;;24.88;56.39;96747.00;4179183;28;5804;-65
2023/09/17 11:40:20;;;;;;;;;;;;;;;24.88;56.18;96751.59;4174484;28;5837;-64
2023/09/17 11:42:23;;;;;;;;;;;;;;;24.89;56.19;96748.59;4174266;28;5827;-65
2023/09/17 11:44:25;;;;;;;;;;;;;;;24.90;56.16;96752.91;4174572;28;5792;-65
2023/09/17 11:46:28;;;;;;;;;;;;;;;24.91;56.13;96746.41;4166291;28;5734;-64
2023/09/17 11:48:31;;;;;;;;;;;;;;;24.91;56.22;96751.81;4175855;28;5781;-64
2023/09/17 11:50:36;;;;;;;;;;;;;;;24.92;56.09;96753.47;4180445;28;5709;-65
2023/09/17 11:52:39;;;;;;;;;;;;;;;24.93;55.84;96751.56;4171174;28;5832;-64
2023/09/17 11:54:50;;;;;;;;;;;;;;;24.93;55.76;96743.44;4183916;28;7734;-65
2023/09/17 11:56:55;;;;;;;;;;;;;;;24.93;55.96;96744.25;4172637;28;5751;-65
2023/09/17 11:59:05;;;;;;;;;;;;;;;24.95;55.57;96750.19;4182365;28;6537;-65
2023/09/17 12:01:07;;;;;;;;;;;;;;;24.95;55.51;96739.34;4185774;28;5729;-65
2023/09/17 12:03:11;;;;;;;;;;;;;;;24.97;55.66;96744.47;4176897;28;5823;-65
2023/09/17 12:05:15;;;;;;;;;;;;;;;24.97;55.70;96739.06;4185322;28;5913;-65
2023/09/17 12:07:18;;;;;;;;;;;;;;;24.95;55.65;96731.25;4185083;28;5825;-65
2023/09/17 12:09:23;;;;;;;;;;;;;;;24.97;55.74;96734.47;4176816;28;5734;-65
2023/09/17 12:11:26;;;;;;;;;;;;;;;24.98;55.55;96736.06;4185075;28;5808;-65
2023/09/17 12:13:31;;;;;;;;;;;;;;;24.98;55.37;96733.38;4185346;28;5807;-65
2023/09/17 12:15:34;;;;;;;;;;;;;;;25.01;55.68;96740.13;4182809;28;5828;-65
2023/09/17 12:17:37;;;;;;;;;;;;;;;25.02;55.64;96733.63;4179318;28;5721;-65
2023/09/17 12:19:49;;;;;;;;;;;;;;;25.01;55.34;96726.59;4185256;28;5732;-65
2023/09/17 12:21:54;;;;;;;;;;;;;;;25.05;55.45;96735.78;4172393;28;5734;-65
2023/09/17 12:23:57;;;;;;;;;;;;;;;25.06;55.22;96736.59;4176970;28;5775;-65
2023/09/17 12:26:00;;;;;;;;;;;;;;;25.07;55.15;96730.88;4177257;28;5793;-65
2023/09/17 12:28:03;;;;;;;;;;;;;;;25.08;55.32;96728.97;4175071;28;5735;-65
2023/09/17 12:30:11;;;;;;;;;;;;;;;25.10;55.10;96724.09;4185002;28;5841;-65
2023/09/17 12:32:17;;;;;;;;;;;;;;;25.11;55.08;96720.28;4169469;28;6073;-65
2023/09/17 12:34:20;;;;;;;;;;;;;;;25.11;54.80;96721.09;4173962;28;5706;-65
2023/09/17 12:36:23;;;;;;;;;;;;;;;25.13;55.05;96723.50;4178285;28;5717;-66
2023/09/17 12:38:26;;;;;;;;;;;;;;;25.14;54.65;96715.13;4174492;28;5746;-66
2023/09/17 12:40:29;;;;;;;;;;;;;;;25.18;54.96;96707.22;4178922;28;5709;-65
2023/09/17 12:42:34;;;;;;;;;;;;;;;25.20;54.72;96710.44;4183068;28;5868;-66
2023/09/17 12:44:37;;;;;;;;;;;;;;;25.22;54.48;96713.66;4180032;28;5721;-65
2023/09/17 12:46:42;;;;;;;;;;;;;;;25.27;54.33;96710.09;4183164;28;5889;-66
2023/09/17 12:48:45;;;;;;;;;;;;;;;25.27;54.10;96699.28;4181096;28;5824;-65
2023/09/17 12:50:48;;;;;;;;;;;;;;;25.28;54.36;96699.00;4185312;28;5713;-65
2023/09/17 12:52:52;;;;;;;;;;;;;;;25.29;54.47;96695.19;4185938;28;5753;-65
2023/09/17 12:54:59;;;;;;;;;;;;;;;25.30;54.29;96698.69;4185954;28;5815;-65
2023/09/17 12:57:02;;;;;;;;;;;;;;;25.31;54.21;96695.69;4185631;28;5955;-65
2023/09/17 12:59:05;;;;;;;;;;;;;;;25.32;54.16;96691.91;4185529;28;5813;-65
2023/09/17 13:01:09;;;;;;;;;;;;;;;25.32;54.06;96688.38;4185676;28;5804;-66
2023/09/17 13:03:14;;;;;;;;;;;;;;;25.33;53.78;96688.09;4169985;28;6431;-65
2023/09/17 13:05:21;;;;;;;;;;;;;;;25.34;54.03;96689.69;4169028;28;5742;-65
2023/09/17 13:07:26;;;;;;;;;;;;;;;25.34;54.15;96681.59;4168906;28;5750;-65
2023/09/17 13:09:31;;;;;;;;;;;;;;;25.34;53.96;96683.50;4169116;28;8482;-65
2023/09/17 13:11:35;;;;;;;;;;;;;;;25.34;53.87;96684.28;4170736;28;5750;-65
2023/09/17 13:13:38;;;;;;;;;;;;;;;25.33;54.08;96682.69;4185476;28;6747;-65
2023/09/17 13:15:41;;;;;;;;;;;;;;;25.34;53.93;96678.88;4173975;28;5727;-65
2023/09/17 13:17:44;;;;;;;;;;;;;;;25.36;53.85;96686.69;4172151;28;5713;-65
2023/09/17 13:19:49;;;;;;;;;;;;;;;25.38;54.01;96679.13;4185383;28;5794;-66
2023/09/17 13:21:52;;;;;;;;;;;;;;;25.39;53.89;96680.72;4185271;28;5713;-65
2023/09/17 13:23:54;;;;;;;;;;;;;;;25.42;53.62;96672.81;4182317;28;5792;-66
2023/09/17 13:25:58;;;;;;;;;;;;;;;25.44;53.53;96677.94;4179168;28;5705;-65
2023/09/17 13:28:11;;;;;;;;;;;;;;;25.45;53.25;96674.13;4174972;28;5135;-65
2023/09/17 13:30:17;;;;;;;;;;;;;;;25.48;53.03;96673.56;4181952;28;5833;-65
2023/09/17 13:32:20;;;;;;;;;;;;;;;25.51;52.80;96664.88;4184106;28;5813;-65
2023/09/17 13:34:23;;;;;;;;;;;;;;;25.53;53.02;96659.97;4174611;28;5829;-65
2023/09/17 13:36:28;;;;;;;;;;;;;;;25.53;52.65;96649.94;4180854;28;5717;-65
2023/09/17 13:38:31;;;;;;;;;;;;;;;25.54;52.99;96665.09;4172676;28;5956;-65
2023/09/17 13:40:34;;;;;;;;;;;;;;;25.54;52.98;96664.28;4181459;28;5814;-65
2023/09/17 13:42:37;;;;;;;;;;;;;;;25.54;52.74;96667.78;4176614;28;5712;-65
2023/09/17 13:44:39;;;;;;;;;;;;;;;25.55;52.62;96658.56;4171588;28;7746;-66
2023/09/17 13:46:46;;;;;;;;;;;;;;;25.58;52.60;96656.38;4181578;28;5866;-66
2023/09/17 13:48:49;;;;;;;;;;;;;;;25.59;52.52;96653.38;4172057;28;5709;-65
2023/09/17 13:50:52;;;;;;;;;;;;;;;25.59;52.28;96656.06;4184760;28;5717;-66
2023/09/17 13:52:57;;;;;;;;;;;;;;;25.59;52.36;96647.16;4184694;28;5814;-66
2023/09/17 13:55:00;;;;;;;;;;;;;;;25.60;52.37;96637.97;4171111;28;5741;-66
2023/09/17 13:57:03;;;;;;;;;;;;;;;25.61;52.58;96639.56;4177667;28;5742;-66
2023/09/17 13:59:06;;;;;;;;;;;;;;;25.60;52.61;96637.97;4182437;28;5732;-66
2023/09/17 14:01:09;;;;;;;;;;;;;;;25.59;52.50;96636.31;4172339;28;7132;-65
2023/09/17 14:03:14;;;;;;;;;;;;;;;25.59;52.86;96630.91;4174782;28;5733;-66
2023/09/17 14:05:17;;;;;;;;;;;;;;;25.60;52.81;96627.13;4179032;28;5837;-66
2023/09/17 14:07:20;;;;;;;;;;;;;;;25.61;52.71;96629.53;4175982;28;5726;-65
2023/09/17 14:09:25;;;;;;;;;;;;;;;25.63;52.80;96637.38;4168716;28;5758;-65
2023/09/17 14:11:27;;;;;;;;;;;;;;;25.63;52.65;96634.66;4175030;28;6822;-65
2023/09/17 14:13:32;;;;;;;;;;;;;;;25.62;52.77;96625.75;4177543;28;5716;-65
2023/09/17 14:15:39;;;;;;;;;;;;;;;25.62;52.58;96622.22;4183990;28;5807;-66
2023/09/17 14:17:41;;;;;;;;;;;;;;;25.62;52.59;96624.94;4181541;28;5874;-65
2023/09/17 14:19:43;;;;;;;;;;;;;;;25.65;52.82;96627.03;4167759;28;5742;-65
2023/09/17 14:21:47;;;;;;;;;;;;;;;25.67;52.60;96611.31;4169263;28;5747;-65
2023/09/17 14:23:50;;;;;;;;;;;;;;;25.68;52.72;96613.72;4166530;28;5742;-65
2023/09/17 14:25:55;;;;;;;;;;;;;;;25.68;52.62;96613.72;4172404;28;5721;-65
2023/09/17 14:27:58;;;;;;;;;;;;;;;25.69;52.84;96619.94;4184405;28;5721;-65
2023/09/17 14:30:04;;;;;;;;;;;;;;;25.70;52.89;96608.84;4184028;28;5733;-66
2023/09/17 14:32:07;;;;;;;;;;;;;;;25.71;52.67;96613.19;4184477;28;5725;-66
2023/09/17 14:34:10;;;;;;;;;;;;;;;25.71;53.03;96602.34;4177304;28;5837;-67
2023/09/17 14:36:13;;;;;;;;;;;;;;;25.73;52.93;96602.06;4174313;28;5920;-66
2023/09/17 14:38:15;;;;;;;;;;;;;;;25.72;52.67;96605.88;4183489;28;5776;-66
2023/09/17 14:40:18;;;;;;;;;;;;;;;25.73;52.84;96596.63;4167857;28;5848;-67
2023/09/17 14:42:22;;;;;;;;;;;;;;;25.73;52.83;96604.75;4175883;28;5717;-65
2023/09/17 14:44:27;;;;;;;;;;;;;;;25.74;53.11;96590.94;4175092;28;5755;-65
2023/09/17 14:46:31;;;;;;;;;;;;;;;25.73;52.76;96588.53;4167692;28;5738;-65
2023/09/17 14:48:34;;;;;;;;;;;;;;;25.73;53.04;96583.09;4167403;28;5746;-65
2023/09/17 14:50:37;;;;;;;;;;;;;;;25.74;53.07;96590.13;4169768;28;5156;-65
2023/09/17 14:52:39;;;;;;;;;;;;;;;25.73;52.93;96588.53;4183666;28;5832;-66
2023/09/17 14:54:42;;;;;;;;;;;;;;;25.73;53.16;96577.69;4172626;28;5808;-66
2023/09/17 14:56:45;;;;;;;;;;;;;;;25.74;53.17;96576.59;4179013;28;5721;-68
2023/09/17 14:58:49;;;;;;;;;;;;;;;25.74;53.13;96573.88;4169573;28;5817;-65
2023/09/17 15:00:52;;;;;;;;;;;;;;;25.75;53.44;96570.06;4172007;28;5717;-66
2023/09/17 15:02:54;;;;;;;;;;;;;;;25.75;53.21;96575.50;4183786;28;5816;-65
2023/09/17 15:04:58;;;;;;;;;;;;;;;25.75;53.55;96564.66;4183788;28;5716;-65
2023/09/17 15:07:01;;;;;;;;;;;;;;;25.75;53.43;96562.75;4183526;28;5718;-66
2023/09/17 15:09:05;;;;;;;;;;;;;;;25.77;53.14;96567.88;4179476;28;5700;-66
2023/09/17 15:11:08;;;;;;;;;;;;;;;25.77;53.28;96563.25;4178694;28;5734;-66
2023/09/17 15:13:11;;;;;;;;;;;;;;;25.78;53.35;96558.63;4167148;28;5750;-68
2023/09/17 15:15:14;;;;;;;;;;;;;;;25.79;53.18;96554.84;4171754;28;5712;-66
2023/09/17 15:17:18;;;;;;;;;;;;;;;25.79;53.38;96557.53;4183873;28;5724;-66
2023/09/17 15:19:21;;;;;;;;;;;;;;;25.80;53.29;96559.16;4175334;28;7746;-66
2023/09/17 15:21:25;;;;;;;;;;;;;;;25.80;53.21;96561.84;4167318;28;7836;-66
2023/09/17 15:23:28;;;;;;;;;;;;;;;25.79;53.52;96561.06;4183862;28;5709;-66
2023/09/17 15:25:31;;;;;;;;;;;;;;;25.78;53.30;96562.16;4173656;28;5738;-66
2023/09/17 15:27:34;;;;;;;;;;;;;;;25.77;53.20;96552.41;4177679;28;5845;-65
2023/09/17 15:29:37;;;;;;;;;;;;;;;25.76;53.26;96555.44;4184432;28;5698;-66
2023/09/17 15:31:44;;;;;;;;;;;;;;;25.75;53.62;96553.81;4182688;28;5721;-65
2023/09/17 15:33:48;;;;;;;;;;;;;;;25.75;53.47;96548.41;4179476;28;5739;-65
2023/09/17 15:35:52;;;;;;;;;;;;;;;25.73;53.41;96543.28;4185515;28;5713;-65
2023/09/17 15:37:56;;;;;;;;;;;;;;;25.72;53.60;96538.19;4185653;28;5716;-64
2023/09/17 15:39:59;;;;;;;;;;;;;;;25.71;53.36;96528.44;4181795;28;5808;-65
2023/09/17 15:42:02;;;;;;;;;;;;;;;25.70;53.47;96533.03;4175663;28;5877;-64
2023/09/17 15:44:06;;;;;;;;;;;;;;;25.71;53.63;96531.13;4178799;28;5784;-67
2023/09/17 15:46:09;;;;;;;;;;;;;;;25.70;53.71;96529.53;4177872;28;5811;-66
2023/09/17 15:48:13;;;;;;;;;;;;;;;25.71;53.69;96536.53;4173361;28;5746;-66
2023/09/17 15:50:16;;;;;;;;;;;;;;;25.69;53.74;96517.91;4178729;28;5854;-65
2023/09/17 15:52:19;;;;;;;;;;;;;;;25.71;53.80;96531.97;4175784;28;5876;-66
2023/09/17 15:54:22;;;;;;;;;;;;;;;25.72;53.73;96527.34;4179849;28;5705;-66
2023/09/17 15:56:25;;;;;;;;;;;;;;;25.72;53.91;96530.06;4176911;28;5737;-66
2023/09/17 15:58:28;;;;;;;;;;;;;;;25.73;53.86;96531.66;4176020;28;5746;-67
2023/09/17 16:00:31;;;;;;;;;;;;;;;25.73;53.89;96531.66;4177173;28;5705;-66
2023/09/17 16:02:34;;;;;;;;;;;;;;;25.73;54.15;96526.25;4176855;28;5733;-67
2023/09/17 16:04:40;;;;;;;;;;;;;;;25.73;54.02;96528.97;4183471;28;6443;-67
2023/09/17 16:06:43;;;;;;;;;;;;;;;25.72;54.27;96519.22;4179373;28;5144;-67
2023/09/17 16:08:46;;;;;;;;;;;;;;;25.70;54.09;96522.22;4176223;28;5805;-67
2023/09/17 16:10:49;;;;;;;;;;;;;;;25.68;54.29;96516.25;4170317;28;5825;-66
2023/09/17 16:12:52;;;;;;;;;;;;;;;25.68;54.33;96515.47;4176171;28;5844;-65
2023/09/17 16:14:59;;;;;;;;;;;;;;;25.67;54.44;96519.28;4178592;28;5881;-67
2023/09/17 16:17:02;;;;;;;;;;;;;;;25.67;54.29;96513.84;4177644;28;5729;-68
2023/09/17 16:19:05;;;;;;;;;;;;;;;25.67;54.46;96513.84;4178254;28;5724;-67
2023/09/17 16:21:11;;;;;;;;;;;;;;;25.66;54.49;96513.06;4175606;28;5791;-67
2023/09/17 16:23:14;;;;;;;;;;;;;;;25.67;54.39;96506.53;4179404;28;5828;-67
2023/09/17 16:25:17;;;;;;;;;;;;;;;25.66;54.42;96499.53;4175455;28;5844;-67
2023/09/17 16:27:20;;;;;;;;;;;;;;;25.65;54.54;96495.19;4179942;28;5743;-67
2023/09/17 16:29:23;;;;;;;;;;;;;;;25.66;54.24;96496.00;4175478;28;5758;-67
2023/09/17 16:31:26;;;;;;;;;;;;;;;25.65;54.42;96489.00;4175018;28;5892;-69
2023/09/17 16:33:30;;;;;;;;;;;;;;;25.65;54.39;96487.09;4176619;28;5719;-66
2023/09/17 16:35:33;;;;;;;;;;;;;;;25.64;54.38;96490.91;4176660;28;6541;-66
2023/09/17 16:37:37;;;;;;;;;;;;;;;25.64;54.61;96492.81;4173508;28;6645;-66
2023/09/17 16:39:40;;;;;;;;;;;;;;;25.63;54.70;96491.19;4175103;28;5964;-66
2023/09/17 16:41:43;;;;;;;;;;;;;;;25.63;54.55;96485.78;4171016;28;5933;-65
2023/09/17 16:43:46;;;;;;;;;;;;;;;25.61;54.67;96480.66;4181013;28;7801;-65
2023/09/17 16:45:48;;;;;;;;;;;;;;;25.61;54.61;96482.56;4177354;28;5820;-65
2023/09/17 16:47:52;;;;;;;;;;;;;;;25.59;54.54;96487.47;4179301;28;8798;-65
2023/09/17 16:49:55;;;;;;;;;;;;;;;25.59;54.31;96490.16;4172255;28;5792;-65
2023/09/17 16:51:58;;;;;;;;;;;;;;;25.58;54.46;96489.34;4177116;28;5833;-65
2023/09/17 16:54:03;;;;;;;;;;;;;;;25.57;54.71;96482.34;4168986;28;5730;-65
2023/09/17 16:56:06;;;;;;;;;;;;;;;25.55;54.36;96482.63;4175576;28;5728;-66
2023/09/17 16:58:08;;;;;;;;;;;;;;;25.54;54.03;96467.50;4177400;28;6218;-65
2023/09/17 17:00:12;;;;;;;;;;;;;;;25.54;54.07;96470.22;4173271;28;5831;-65
2023/09/17 17:02:15;;;;;;;;;;;;;;;25.52;54.00;96468.91;4176935;28;5761;-65
2023/09/17 17:04:18;;;;;;;;;;;;;;;25.52;54.10;96474.31;4175004;28;5730;-64
2023/09/17 17:06:21;;;;;;;;;;;;;;;25.50;54.20;96469.22;4175468;28;5843;-64
2023/09/17 17:08:24;;;;;;;;;;;;;;;25.51;53.87;96476.22;4176797;28;5800;-64
2023/09/17 17:10:29;;;;;;;;;;;;;;;25.49;53.88;96470.31;4174910;28;5945;-65
2023/09/17 17:12:31;;;;;;;;;;;;;;;25.49;53.83;96474.91;4177155;28;6630;-65
2023/09/17 17:14:34;;;;;;;;;;;;;;;25.48;53.77;96465.16;4181565;28;5807;-65
2023/09/17 17:16:37;;;;;;;;;;;;;;;25.48;53.84;96457.06;4179625;28;5803;-66
2023/09/17 17:18:40;;;;;;;;;;;;;;;25.48;53.87;96457.88;4177014;28;5864;-65
2023/09/17 17:20:43;;;;;;;;;;;;;;;25.46;53.76;96470.88;4176225;28;5783;-66
2023/09/17 17:22:48;;;;;;;;;;;;;;;25.45;53.78;96453.03;4174031;28;6566;-65
2023/09/17 17:24:51;;;;;;;;;;;;;;;25.45;54.08;96458.44;4179169;28;5717;-65
2023/09/17 17:26:55;;;;;;;;;;;;;;;25.44;54.12;96461.47;4182059;28;5095;-66
2023/09/17 17:28:58;;;;;;;;;;;;;;;25.44;54.22;96470.38;4177912;28;5708;-65
2023/09/17 17:31:01;;;;;;;;;;;;;;;25.41;53.95;96460.16;4173442;28;5804;-66
2023/09/17 17:33:06;;;;;;;;;;;;;;;25.41;54.17;96454.75;4175217;28;7060;-66
2023/09/17 17:35:10;;;;;;;;;;;;;;;25.39;53.82;96459.66;4178862;28;5891;-66
2023/09/17 17:37:13;;;;;;;;;;;;;;;25.38;54.05;96459.94;4179825;28;5860;-66
2023/09/17 17:39:16;;;;;;;;;;;;;;;25.37;54.08;96464.56;4178100;28;5815;-65
2023/09/17 17:41:19;;;;;;;;;;;;;;;25.36;54.33;96471.03;4180226;28;5716;-66
2023/09/17 17:43:23;;;;;;;;;;;;;;;25.36;53.90;96459.41;4175935;28;5829;-67
2023/09/17 17:45:25;;;;;;;;;;;;;;;25.34;53.94;96446.19;4179938;28;5818;-68
2023/09/17 17:47:32;;;;;;;;;;;;;;;25.32;54.02;96442.19;4176110;28;5805;-67
2023/09/17 17:49:35;;;;;;;;;;;;;;;25.32;53.99;96456.50;4181409;28;5717;-66
2023/09/17 17:51:38;;;;;;;;;;;;;;;25.31;53.92;96451.41;4182457;28;5928;-72
2023/09/17 17:53:41;;;;;;;;;;;;;;;25.30;54.25;96444.38;4181439;28;5754;-73
2023/09/17 17:55:44;;;;;;;;;;;;;;;25.28;54.25;96441.97;4167992;28;5769;-72
2023/09/17 17:57:47;;;;;;;;;;;;;;;25.29;54.25;96448.19;4174488;28;5827;-70
2023/09/17 17:59:51;;;;;;;;;;;;;;;25.27;54.13;96451.19;4178866;28;5728;-72
2023/09/17 18:01:55;;;;;;;;;;;;;;;25.25;54.47;96461.47;4175020;28;5880;-78
2023/09/17 18:03:58;;;;;;;;;;;;;;;25.25;54.19;96451.47;4180774;28;5788;-68
2023/09/17 18:06:01;;;;;;;;;;;;;;;25.23;54.58;96450.16;4182671;28;5717;-68
2023/09/17 18:08:05;;;;;;;;;;;;;;;25.23;54.58;96460.97;4183234;28;5844;-67
2023/09/17 18:10:11;;;;;;;;;;;;;;;25.22;54.44;96459.38;4183331;28;5729;-66